createdAt,value
2023-05-12T00:01:08.206Z,15.30
2023-05-12T00:03:35.112Z,15.40
2023-05-12T00:06:04.393Z,15.40
2023-05-12T00:08:31.440Z,15.40
2023-05-12T00:10:58.377Z,15.40
2023-05-12T00:13:25.134Z,15.40
2023-05-12T00:15:51.955Z,15.40
2023-05-12T00:18:18.713Z,15.40
2023-05-12T00:20:45.562Z,15.30
2023-05-12T00:23:12.204Z,15.30
2023-05-12T00:25:38.968Z,15.30
2023-05-12T00:28:05.674Z,15.30
2023-05-12T00:30:32.350Z,15.30
2023-05-12T00:32:59.059Z,15.30
2023-05-12T00:35:25.839Z,15.20
2023-05-12T00:37:52.508Z,15.20
2023-05-12T00:40:19.666Z,15.20
2023-05-12T00:42:46.486Z,15.20
2023-05-12T00:45:13.122Z,15.20
2023-05-12T00:47:39.892Z,15.30
2023-05-12T00:50:06.911Z,15.30
2023-05-12T00:52:33.602Z,15.30
2023-05-12T00:55:00.400Z,15.30
2023-05-12T00:57:27.951Z,15.40
2023-05-12T00:59:55.126Z,15.40
2023-05-12T01:02:22.162Z,15.40
2023-05-12T01:04:49.225Z,15.40
2023-05-12T01:07:17.821Z,15.40
2023-05-12T01:09:44.550Z,15.40
2023-05-12T01:12:11.199Z,15.40
2023-05-12T01:14:37.916Z,15.40
2023-05-12T01:17:06.685Z,15.30
2023-05-12T01:20:03.018Z,15.20
2023-05-12T01:22:31.367Z,15.10
2023-05-12T01:24:59.130Z,15.00
2023-05-12T01:27:26.237Z,15.00
2023-05-12T01:29:53.109Z,15.00
2023-05-12T01:32:19.906Z,15.00
2023-05-12T01:34:46.674Z,15.10
2023-05-12T01:37:13.434Z,15.10
2023-05-12T01:39:40.141Z,15.10
2023-05-12T01:42:06.848Z,15.20
2023-05-12T01:44:33.521Z,15.20
2023-05-12T01:47:00.155Z,15.10
2023-05-12T01:49:26.807Z,14.90
2023-05-12T01:51:53.557Z,14.80
2023-05-12T01:54:20.388Z,14.80
2023-05-12T01:56:47.080Z,14.70
2023-05-12T01:59:13.822Z,14.60
2023-05-12T02:01:40.676Z,14.60
2023-05-12T02:04:08.907Z,14.70
2023-05-12T02:06:35.918Z,14.70
2023-05-12T02:09:02.881Z,14.70
2023-05-12T02:11:29.735Z,14.80
2023-05-12T02:13:56.564Z,14.80
2023-05-12T02:16:23.345Z,14.80
2023-05-12T02:18:50.138Z,14.80
2023-05-12T02:21:16.862Z,14.80
2023-05-12T02:23:43.485Z,14.80
2023-05-12T02:26:10.231Z,14.70
2023-05-12T02:28:37.443Z,14.70
2023-05-12T02:31:04.492Z,14.70
2023-05-12T02:33:31.396Z,14.70
2023-05-12T02:35:58.073Z,14.70
2023-05-12T02:38:24.767Z,14.60
2023-05-12T02:40:51.433Z,14.60
2023-05-12T02:43:18.152Z,14.60
2023-05-12T02:45:44.843Z,14.60
2023-05-12T02:48:11.657Z,14.50
2023-05-12T02:50:38.302Z,14.50
2023-05-12T02:53:04.952Z,14.40
2023-05-12T02:55:31.659Z,14.40
2023-05-12T02:57:58.343Z,14.40
2023-05-12T03:00:24.987Z,14.40
2023-05-12T03:02:51.739Z,14.40
2023-05-12T03:05:18.537Z,14.40
2023-05-12T03:07:45.320Z,14.40
2023-05-12T03:10:11.983Z,14.30
2023-05-12T03:12:38.775Z,14.30
2023-05-12T03:15:05.908Z,14.30
2023-05-12T03:17:32.653Z,14.40
2023-05-12T03:19:59.373Z,14.40
2023-05-12T03:22:26.100Z,14.40
2023-05-12T03:24:52.848Z,14.40
2023-05-12T03:27:19.710Z,14.40
2023-05-12T03:29:46.704Z,14.40
2023-05-12T03:32:13.417Z,14.40
2023-05-12T03:34:40.107Z,14.30
2023-05-12T03:37:06.846Z,14.20
2023-05-12T03:39:33.509Z,14.20
2023-05-12T03:42:00.248Z,14.10
2023-05-12T03:44:26.943Z,14.00
2023-05-12T03:46:53.771Z,14.10
2023-05-12T03:49:20.475Z,14.10
2023-05-12T03:51:47.400Z,14.10
2023-05-12T03:54:14.117Z,14.10
2023-05-12T03:56:40.864Z,14.10
2023-05-12T03:59:07.551Z,14.20
2023-05-12T04:01:34.360Z,14.20
2023-05-12T04:04:01.127Z,14.20
2023-05-12T04:06:27.815Z,14.10
2023-05-12T04:08:54.609Z,14.10
2023-05-12T04:11:21.329Z,14.00
2023-05-12T04:13:47.999Z,14.10
2023-05-12T04:16:14.711Z,14.00
2023-05-12T04:18:41.461Z,14.00
2023-05-12T04:21:08.170Z,14.00
2023-05-12T04:23:34.952Z,14.00
2023-05-12T04:26:03.584Z,13.90
2023-05-12T04:28:30.207Z,13.90
2023-05-12T04:30:56.907Z,13.90
2023-05-12T04:33:23.622Z,13.90
2023-05-12T04:35:50.410Z,14.00
2023-05-12T04:38:17.073Z,14.00
2023-05-12T04:40:43.756Z,14.10
2023-05-12T04:44:00.005Z,14.10
2023-05-12T04:45:58.586Z,14.20
2023-05-12T04:48:26.690Z,14.20
2023-05-12T04:50:53.370Z,14.20
2023-05-12T04:53:20.034Z,14.50
2023-05-12T04:55:46.795Z,14.80
2023-05-12T04:58:13.890Z,15.00
2023-05-12T05:00:40.630Z,15.20
2023-05-12T05:03:07.368Z,15.30
2023-05-12T05:05:34.155Z,15.50
2023-05-12T05:08:01.651Z,15.60
2023-05-12T05:10:28.333Z,15.60
2023-05-12T05:12:55.062Z,15.70
2023-05-12T05:15:21.880Z,15.90
2023-05-12T05:17:49.819Z,16.30
2023-05-12T05:20:17.046Z,16.80
2023-05-12T05:22:43.839Z,17.80
2023-05-12T05:25:10.929Z,19.00
2023-05-12T05:27:38.861Z,21.10
2023-05-12T05:30:06.887Z,23.00
2023-05-12T05:32:34.626Z,24.90
2023-05-12T05:35:01.301Z,26.30
2023-05-12T05:37:28.037Z,27.50
2023-05-12T05:39:54.703Z,28.30
2023-05-12T05:42:21.373Z,28.40
2023-05-12T05:44:48.000Z,28.20
2023-05-12T05:47:14.784Z,27.10
2023-05-12T05:49:42.223Z,26.20
2023-05-12T05:52:09.381Z,25.70
2023-05-12T05:54:36.064Z,25.90
2023-05-12T05:57:03.062Z,26.30
2023-05-12T05:59:29.812Z,27.00
2023-05-12T06:01:56.571Z,26.40
2023-05-12T06:04:23.447Z,25.40
2023-05-12T06:06:50.238Z,24.40
2023-05-12T06:09:17.106Z,23.60
2023-05-12T06:11:43.837Z,22.80
2023-05-12T06:14:11.503Z,21.90
2023-05-12T06:16:38.243Z,21.00
2023-05-12T06:19:05.072Z,21.40
2023-05-12T06:21:32.292Z,22.20
2023-05-12T06:23:59.298Z,22.80
2023-05-12T06:26:26.123Z,24.40
2023-05-12T06:28:52.865Z,25.90
2023-05-12T06:31:19.547Z,27.10
2023-05-12T06:33:46.261Z,28.50
2023-05-12T06:36:13.024Z,29.90
2023-05-12T06:38:39.714Z,31.30
2023-05-12T06:41:06.655Z,32.30
2023-05-12T06:43:33.515Z,32.70
2023-05-12T06:46:00.284Z,32.70
2023-05-12T06:48:27.038Z,32.30
2023-05-12T06:50:53.949Z,32.10
2023-05-12T06:53:21.168Z,31.90
2023-05-12T06:55:50.502Z,31.60
2023-05-12T06:58:19.068Z,31.50
2023-05-12T07:00:45.748Z,31.50
2023-05-12T07:03:12.562Z,31.70
2023-05-12T07:05:39.657Z,32.20
2023-05-12T07:08:06.441Z,32.50
2023-05-12T07:10:33.193Z,32.90
2023-05-12T07:12:59.972Z,33.10
2023-05-12T07:15:26.834Z,32.90
2023-05-12T07:17:55.454Z,33.20
2023-05-12T07:20:22.402Z,33.10
2023-05-12T07:22:49.118Z,33.40
2023-05-12T07:25:16.115Z,33.70
2023-05-12T07:27:42.900Z,33.90
2023-05-12T07:30:09.714Z,34.00
2023-05-12T07:32:36.691Z,34.20
2023-05-12T07:35:03.738Z,34.50
2023-05-12T07:37:30.595Z,35.40
2023-05-12T07:39:57.309Z,36.20
2023-05-12T07:42:24.325Z,36.80
2023-05-12T07:44:51.010Z,37.20
2023-05-12T07:47:17.770Z,37.10
2023-05-12T07:49:44.594Z,37.20
2023-05-12T07:52:11.312Z,37.80
2023-05-12T07:54:38.002Z,37.40
2023-05-12T07:57:04.730Z,35.90
2023-05-12T07:59:31.408Z,34.30
2023-05-12T08:01:58.802Z,32.50
2023-05-12T08:04:25.738Z,31.30
2023-05-12T08:06:52.635Z,30.10
2023-05-12T08:09:19.345Z,29.10
2023-05-12T08:11:48.094Z,28.40
2023-05-12T08:14:16.835Z,27.80
2023-05-12T08:16:45.592Z,27.50
2023-05-12T08:19:12.888Z,27.70
2023-05-12T08:21:40.349Z,27.70
2023-05-12T08:24:07.137Z,27.50
2023-05-12T08:26:33.930Z,27.20
2023-05-12T08:29:01.607Z,26.70
2023-05-12T08:31:28.338Z,26.40
2023-05-12T08:36:26.232Z,27.40
2023-05-12T08:38:52.940Z,28.60
2023-05-12T08:41:21.899Z,30.10
2023-05-12T08:43:51.876Z,31.20
2023-05-12T08:46:18.815Z,32.10
2023-05-12T08:48:46.321Z,33.40
2023-05-12T08:51:13.879Z,33.80
2023-05-12T08:53:41.023Z,34.60
2023-05-12T08:58:41.804Z,35.90
2023-05-12T09:01:09.763Z,36.70
2023-05-12T09:03:36.552Z,37.30
2023-05-12T09:06:03.757Z,37.40
2023-05-12T09:08:31.865Z,38.00
2023-05-12T09:10:58.730Z,38.60
2023-05-12T09:13:40.387Z,37.70
2023-05-12T09:16:07.982Z,35.30
2023-05-12T09:18:53.964Z,32.70
2023-05-12T09:21:20.773Z,30.80
2023-05-12T09:24:05.997Z,29.10
2023-05-12T09:26:46.332Z,27.90
2023-05-12T09:29:20.722Z,26.80
2023-05-12T09:31:55.778Z,25.90
2023-05-12T09:34:30.517Z,25.10
2023-05-12T09:36:57.973Z,24.60
2023-05-12T09:39:24.864Z,24.10
2023-05-12T09:41:52.694Z,23.80
2023-05-12T09:44:19.572Z,23.40
2023-05-12T09:46:46.288Z,23.20
2023-05-12T09:49:13.128Z,23.10
2023-05-12T09:51:40.137Z,22.90
2023-05-12T09:54:07.938Z,22.70
2023-05-12T09:56:36.448Z,22.70
2023-05-12T09:59:04.578Z,22.80
2023-05-12T10:01:31.683Z,23.10
2023-05-12T10:03:58.834Z,23.40
2023-05-12T10:06:34.113Z,23.80
2023-05-12T10:09:19.047Z,24.10
2023-05-12T10:11:45.854Z,24.40
2023-05-12T10:14:13.456Z,24.20
2023-05-12T10:16:40.540Z,24.00
2023-05-12T10:19:07.408Z,23.90
2023-05-12T10:21:34.186Z,23.70
2023-05-12T10:24:00.857Z,23.70
2023-05-12T10:26:27.550Z,23.70
2023-05-12T10:28:54.224Z,23.90
2023-05-12T10:31:22.387Z,24.00
2023-05-12T10:33:58.956Z,24.00
2023-05-12T10:36:26.019Z,24.00
2023-05-12T10:38:52.903Z,24.00
2023-05-12T10:41:29.117Z,23.90
2023-05-12T10:43:55.845Z,23.80
2023-05-12T10:46:22.784Z,23.70
2023-05-12T10:48:52.901Z,23.60
2023-05-12T10:51:24.141Z,23.70
2023-05-12T10:53:54.635Z,23.80
2023-05-12T10:56:23.045Z,24.20
2023-05-12T10:59:09.714Z,24.60
2023-05-12T11:01:37.864Z,24.90
2023-05-12T11:04:14.445Z,25.20
2023-05-12T11:06:41.746Z,25.30
2023-05-12T11:09:09.385Z,25.40
2023-05-12T11:11:36.462Z,25.40
2023-05-12T11:14:03.283Z,25.60
2023-05-12T11:16:30.107Z,25.70
2023-05-12T11:19:03.803Z,25.70
2023-05-12T11:21:33.657Z,25.80
2023-05-12T11:24:00.734Z,25.80
2023-05-12T11:26:27.821Z,25.70
2023-05-12T11:28:54.792Z,25.50
2023-05-12T11:31:21.716Z,25.30
2023-05-12T11:33:53.706Z,25.30
2023-05-12T11:36:25.358Z,25.30
2023-05-12T11:38:52.098Z,25.40
2023-05-12T11:41:25.131Z,25.50
2023-05-12T11:43:52.262Z,25.60
2023-05-12T11:46:26.579Z,25.70
2023-05-12T11:48:56.739Z,25.80
2023-05-12T11:51:23.507Z,25.80
2023-05-12T11:53:50.432Z,25.70
2023-05-12T11:56:21.791Z,25.50
2023-05-12T11:58:54.990Z,25.30
2023-05-12T12:01:21.914Z,25.10
2023-05-12T12:03:49.013Z,24.80
2023-05-12T12:06:15.781Z,24.70
2023-05-12T12:08:52.076Z,24.60
2023-05-12T12:11:19.253Z,24.60
2023-05-12T12:13:51.665Z,24.50
2023-05-12T12:16:18.383Z,24.60
2023-05-12T12:18:45.178Z,24.60
2023-05-12T12:21:12.122Z,24.20
2023-05-12T12:23:50.422Z,23.90
2023-05-12T12:26:17.542Z,23.40
2023-05-12T12:28:45.791Z,23.20
2023-05-12T12:31:13.077Z,23.10
2023-05-12T12:33:39.821Z,23.30
2023-05-12T12:36:06.644Z,23.20
2023-05-12T12:38:33.413Z,22.80
2023-05-12T12:41:00.475Z,22.50
2023-05-12T12:43:27.342Z,22.40
2023-05-12T12:45:54.618Z,22.10
2023-05-12T12:48:21.686Z,21.90
2023-05-12T12:50:48.417Z,21.70
2023-05-12T12:53:15.267Z,21.50
2023-05-12T12:55:42.104Z,21.30
2023-05-12T12:58:09.102Z,21.10
2023-05-12T13:00:36.169Z,21.10
2023-05-12T13:03:03.211Z,21.00
2023-05-12T13:05:29.955Z,21.00
2023-05-12T13:07:56.757Z,20.90
2023-05-12T13:10:23.583Z,20.80
2023-05-12T13:12:50.242Z,20.80
2023-05-12T13:15:19.513Z,20.70
2023-05-12T13:17:46.689Z,20.60
2023-05-12T13:20:14.063Z,20.60
2023-05-12T13:22:43.768Z,20.60
2023-05-12T13:25:11.169Z,20.60
2023-05-12T13:27:38.399Z,20.40
2023-05-12T13:30:06.590Z,20.10
2023-05-12T13:32:33.750Z,19.80
2023-05-12T13:35:00.912Z,19.70
2023-05-12T13:37:27.845Z,19.70
2023-05-12T13:39:54.552Z,19.80
2023-05-12T13:42:22.382Z,19.90
2023-05-12T13:44:49.350Z,20.00
2023-05-12T13:47:16.098Z,20.20
2023-05-12T13:49:42.769Z,20.30
2023-05-12T13:52:09.437Z,20.50
2023-05-12T13:54:36.475Z,20.70
2023-05-12T13:57:04.157Z,21.10
2023-05-12T13:59:31.326Z,21.30
2023-05-12T14:01:58.261Z,21.50
2023-05-12T14:04:25.106Z,21.80
2023-05-12T14:06:51.809Z,22.20
2023-05-12T14:09:19.439Z,22.40
2023-05-12T14:11:46.250Z,22.40
2023-05-12T14:14:12.926Z,22.30
2023-05-12T14:16:39.797Z,22.00
2023-05-12T14:19:06.619Z,21.70
2023-05-12T14:21:33.831Z,21.50
2023-05-12T14:24:00.483Z,21.10
2023-05-12T14:26:28.257Z,21.00
2023-05-12T14:28:55.179Z,21.10
2023-05-12T14:31:21.933Z,21.40
2023-05-12T14:33:48.548Z,21.70
2023-05-12T14:36:15.215Z,22.10
2023-05-12T14:38:42.007Z,22.10
2023-05-12T14:41:09.636Z,22.00
2023-05-12T14:43:36.375Z,21.70
2023-05-12T14:46:03.201Z,21.50
2023-05-12T14:48:29.941Z,21.50
2023-05-12T14:50:56.639Z,21.70
2023-05-12T14:53:23.353Z,21.90
2023-05-12T14:55:50.068Z,22.00
2023-05-12T14:58:17.754Z,22.10
2023-05-12T15:00:44.800Z,22.20
2023-05-12T15:03:11.758Z,22.30
2023-05-12T15:05:56.741Z,22.30
2023-05-12T15:08:25.414Z,22.30
2023-05-12T15:10:52.134Z,22.20
2023-05-12T15:13:20.497Z,22.00
2023-05-12T15:15:47.239Z,21.80
2023-05-12T15:18:13.965Z,21.90
2023-05-12T15:20:40.789Z,21.90
2023-05-12T15:23:07.520Z,22.00
2023-05-12T15:25:34.266Z,22.00
2023-05-12T15:28:00.947Z,22.00
2023-05-12T15:30:27.667Z,22.10
2023-05-12T15:32:54.283Z,22.10
2023-05-12T15:35:21.121Z,22.00
2023-05-12T15:37:48.005Z,22.00
2023-05-12T15:40:14.806Z,22.00
2023-05-12T15:42:41.568Z,21.90
2023-05-12T15:45:09.704Z,21.70
2023-05-12T15:47:36.588Z,21.50
2023-05-12T15:50:04.074Z,21.40
2023-05-12T15:52:31.030Z,21.40
2023-05-12T15:54:57.757Z,21.40
2023-05-12T15:57:24.458Z,21.40
2023-05-12T15:59:56.312Z,21.40
2023-05-12T16:02:23.004Z,21.50
2023-05-12T16:04:49.732Z,21.50
2023-05-12T16:07:16.473Z,21.50
2023-05-12T16:09:43.164Z,21.50
2023-05-12T16:12:11.468Z,21.30
2023-05-12T16:14:38.259Z,20.70
2023-05-12T16:17:05.073Z,20.30
2023-05-12T16:19:31.840Z,20.00
2023-05-12T16:21:59.485Z,19.90
2023-05-12T16:24:28.528Z,19.80
2023-05-12T16:26:55.609Z,19.80
2023-05-12T16:29:22.385Z,19.90
2023-05-12T16:31:49.199Z,19.90
2023-05-12T16:34:15.935Z,19.90
2023-05-12T16:36:42.669Z,19.90
2023-05-12T16:39:09.389Z,19.70
2023-05-12T16:41:36.194Z,19.50
2023-05-12T16:44:03.137Z,19.40
2023-05-12T16:46:29.871Z,19.20
2023-05-12T16:48:56.595Z,18.70
2023-05-12T16:51:24.413Z,18.40
2023-05-12T16:53:51.497Z,18.20
2023-05-12T16:56:18.156Z,18.10
2023-05-12T16:58:44.853Z,17.90
2023-05-12T17:01:11.636Z,17.70
2023-05-12T17:03:39.360Z,17.70
2023-05-12T17:06:06.297Z,17.70
2023-05-12T17:08:35.750Z,17.80
2023-05-12T17:11:02.850Z,17.90
2023-05-12T17:13:30.481Z,17.90
2023-05-12T17:15:57.565Z,17.80
2023-05-12T17:18:24.915Z,17.60
2023-05-12T17:20:51.677Z,17.30
2023-05-12T17:23:18.321Z,17.20
2023-05-12T17:25:44.977Z,17.20
2023-05-12T17:28:11.671Z,17.20
2023-05-12T17:30:38.403Z,17.20
2023-05-12T17:33:05.152Z,17.10
2023-05-12T17:35:32.935Z,17.10
2023-05-12T17:37:59.629Z,17.10
2023-05-12T17:40:26.550Z,17.10
2023-05-12T17:42:53.351Z,17.10
2023-05-12T17:45:20.527Z,17.10
2023-05-12T17:47:49.099Z,17.10
2023-05-12T17:50:16.385Z,16.90
2023-05-12T17:52:43.502Z,16.90
2023-05-12T17:55:10.198Z,16.80
2023-05-12T17:57:36.886Z,16.80
2023-05-12T18:00:09.584Z,16.80
2023-05-12T18:02:37.085Z,16.70
2023-05-12T18:05:05.243Z,16.70
2023-05-12T18:07:32.105Z,16.70
2023-05-12T18:09:58.784Z,16.70
2023-05-12T18:12:25.532Z,16.80
2023-05-12T18:14:52.235Z,16.80
2023-05-12T18:17:19.585Z,16.60
2023-05-12T18:19:46.316Z,16.60
2023-05-12T18:22:13.205Z,16.60
2023-05-12T18:24:39.869Z,16.60
2023-05-12T18:27:06.722Z,16.60
2023-05-12T18:29:33.468Z,16.60
2023-05-12T18:32:00.108Z,16.60
2023-05-12T18:34:26.804Z,16.50
2023-05-12T18:36:53.492Z,16.50
2023-05-12T18:39:20.391Z,16.50
2023-05-12T18:41:47.141Z,16.40
2023-05-12T18:44:13.905Z,16.30
2023-05-12T18:46:40.728Z,16.30
2023-05-12T18:49:07.723Z,16.20
2023-05-12T18:51:34.403Z,16.10
2023-05-12T18:54:01.135Z,16.00
2023-05-12T18:56:27.852Z,15.90
2023-05-12T18:58:54.650Z,15.90
2023-05-12T19:01:21.400Z,15.80
2023-05-12T19:03:48.635Z,15.70
2023-05-12T19:06:15.290Z,15.70
2023-05-12T19:08:41.977Z,15.70
2023-05-12T19:11:09.009Z,15.60
2023-05-12T19:13:40.648Z,15.60
2023-05-12T19:16:07.464Z,15.50
2023-05-12T19:18:34.388Z,15.50
2023-05-12T19:21:01.689Z,15.40
2023-05-12T19:23:30.114Z,15.40
2023-05-12T19:25:56.820Z,15.30
2023-05-12T19:28:23.631Z,15.30
2023-05-12T19:30:50.794Z,15.30
2023-05-12T19:33:17.598Z,15.30
2023-05-12T19:35:44.370Z,15.20
2023-05-12T19:38:11.084Z,15.20
2023-05-12T19:40:37.702Z,15.20
2023-05-12T19:43:05.220Z,15.30
2023-05-12T19:45:31.980Z,15.30
2023-05-12T19:47:59.154Z,15.30
2023-05-12T19:50:25.807Z,15.30
2023-05-12T19:52:52.457Z,15.40
2023-05-12T19:55:19.909Z,15.40
2023-05-12T19:57:46.785Z,15.40
2023-05-12T20:00:13.649Z,15.40
2023-05-12T20:02:40.825Z,15.30
2023-05-12T20:05:07.764Z,15.20
2023-05-12T20:07:34.541Z,15.10
2023-05-12T20:10:01.315Z,15.00
2023-05-12T20:12:27.923Z,15.00
2023-05-12T20:14:54.682Z,15.00
2023-05-12T20:17:21.910Z,15.00
2023-05-12T20:19:48.683Z,15.00
2023-05-12T20:22:16.677Z,15.00
2023-05-12T20:24:44.355Z,15.10
2023-05-12T20:27:11.051Z,15.10
2023-05-12T20:29:37.979Z,15.00
2023-05-12T20:32:04.819Z,15.00
2023-05-12T20:34:31.974Z,14.90
2023-05-12T20:36:58.689Z,14.90
2023-05-12T20:39:25.398Z,15.00
2023-05-12T20:41:52.071Z,15.00
2023-05-12T20:44:19.472Z,15.00
2023-05-12T20:46:46.671Z,15.00
2023-05-12T20:49:13.417Z,14.90
2023-05-12T20:51:40.198Z,14.80
2023-05-12T20:54:06.865Z,14.70
2023-05-12T20:56:33.593Z,14.60
2023-05-12T20:59:00.416Z,14.50
2023-05-12T21:01:27.143Z,14.40
2023-05-12T21:03:54.009Z,14.40
2023-05-12T21:06:20.786Z,14.40
2023-05-12T21:08:47.448Z,14.40
2023-05-12T21:11:17.295Z,14.40
2023-05-12T21:13:45.145Z,14.40
2023-05-12T21:16:11.847Z,14.40
2023-05-12T21:18:38.644Z,14.40
2023-05-12T21:21:06.073Z,14.30
2023-05-12T21:23:32.866Z,14.30
2023-05-12T21:25:59.549Z,14.30
2023-05-12T21:28:26.258Z,14.30
2023-05-12T21:30:53.050Z,14.40
2023-05-12T21:33:19.700Z,14.40
2023-05-12T21:35:46.435Z,14.40
2023-05-12T21:38:13.404Z,14.40
2023-05-12T21:40:40.102Z,14.30
2023-05-12T21:43:06.915Z,14.30
2023-05-12T21:45:33.593Z,14.30
2023-05-12T21:48:00.383Z,14.30
2023-05-12T21:50:27.134Z,14.40
2023-05-12T21:52:53.855Z,14.40
2023-05-12T21:55:20.599Z,14.40
2023-05-12T21:57:47.514Z,14.30
2023-05-12T22:00:15.102Z,14.30
2023-05-12T22:02:42.147Z,14.20
2023-05-12T22:05:09.149Z,14.20
2023-05-12T22:07:35.831Z,14.20
2023-05-12T22:10:02.958Z,14.10
2023-05-12T22:12:29.714Z,14.20
2023-05-12T22:14:56.377Z,14.30
2023-05-12T22:17:23.144Z,14.30
2023-05-12T22:19:50.131Z,14.30
2023-05-12T22:22:16.756Z,14.40
2023-05-12T22:24:43.872Z,14.30
2023-05-12T22:27:10.723Z,14.50
2023-05-12T22:29:37.441Z,14.40
2023-05-12T22:32:04.121Z,14.50
2023-05-12T22:34:30.823Z,14.50
2023-05-12T22:36:57.496Z,14.40
2023-05-12T22:39:24.177Z,14.30
2023-05-12T22:41:51.074Z,14.30
2023-05-12T22:44:17.773Z,14.20
2023-05-12T22:46:44.531Z,14.10
2023-05-12T22:49:11.354Z,14.10
2023-05-12T22:51:38.099Z,14.00
2023-05-12T22:54:04.821Z,14.00
2023-05-12T22:56:31.498Z,14.00
2023-05-12T22:58:58.268Z,13.90
2023-05-12T23:01:25.045Z,13.90
2023-05-12T23:03:52.052Z,13.90
2023-05-12T23:06:18.823Z,13.80
2023-05-12T23:08:45.705Z,13.80
2023-05-12T23:11:13.001Z,13.80
2023-05-12T23:13:39.736Z,13.70
2023-05-12T23:16:06.984Z,13.60
2023-05-12T23:18:34.115Z,13.60
2023-05-12T23:21:00.913Z,13.50
2023-05-12T23:23:27.610Z,13.50
2023-05-12T23:25:54.318Z,13.50
2023-05-12T23:28:21.031Z,13.50
2023-05-12T23:30:47.707Z,13.50
2023-05-12T23:33:14.550Z,13.40
2023-05-12T23:35:41.308Z,13.40
2023-05-12T23:38:08.065Z,13.30
2023-05-12T23:40:39.359Z,13.30
2023-05-12T23:43:06.343Z,13.20
2023-05-12T23:45:33.144Z,13.20
2023-05-12T23:48:00.036Z,13.10
2023-05-12T23:50:26.913Z,13.20
2023-05-12T23:52:53.693Z,13.10
2023-05-12T23:55:20.739Z,13.10
2023-05-12T23:57:47.530Z,13.10
